ニアメ の空港の天気 - METARとTAF

ニアメ/ディオリ・アマニ国際空港 ( DRRN / NIM ) - ニジェール ニアメ
飛行場実況気象(Metar)
観測時間05/29 00:00 WAT (05/28 23:00 UTC)
風向・風速南南西 4m/s
視程8000m
天気現象
少しの雲 雲底高度 1220m
気温35℃
湿度34%
気圧1009hPa
METARDRRN 282300Z 21008KT 8000 TS FEW040CB 35/17 Q1009 NOSIG
過去の天気等 Google飛行場航空写真 Wunderground天気予報

過去48時間のMETAR

飛行場予報(TAF)
発表時間: 5/28 18:00 WAT (5/28 17:00 UTC)
予報対象時間: 28日19時 WAT ~ 30日1時 WAT
風向・風速南南東 4m/s
視程6000m
天気現象
全天の4割程度の雲 雲底高度 910m
少しの積乱雲 雲底高度 1220m
28日20時 WAT ~ 28日23時 WAT に 確率 40% で一時的に
風向・風速東 13m/s 瞬間風速 23m/s
視程800m
天気現象スコール 高い風塵 弱い雷雨
29日0時 WAT から
風向・風速南西 8m/s
視程8000m
少しの雲 雲底高度 1220m
TAF DRRN 281700Z 2818/2924 15008KT 6000 TS SCT030 FEW040CB
PROB40 TEMPO 2819/2822 10025G45KT 0800 SQ BLDU -TSRA
FM282300 22015KT 8000 FEW040